Time;durP1;ratioP1;P1;durP2;ratioP2;P2;SDS_P1;SDS_P2;PMS_P1;PMS_P2;Temp;Humidity;BMP_temperature;BMP_pressure;BME280_temperature;BME280_humidity;BME280_pressure;Samples;Min_cycle;Max_cycle;Signal;HPM_P1;HPM_P2
2022/09/04 00:00:13;;;;;;;3.30;1.67;;;16.50;79.00;;;;;;4862426;29;20049;-67
2022/09/04 00:02:51;;;;;;;2.47;2.13;;;16.50;80.10;;;;;;4850968;29;20093;-66
2022/09/04 00:05:30;;;;;;;3.63;1.73;;;16.50;79.50;;;;;;4850106;29;20088;-66
2022/09/04 00:08:15;;;;;;;7.10;2.35;;;16.40;81.30;;;;;;4854776;29;20073;-65
2022/09/04 00:11:24;;;;;;;2.63;2.00;;;16.40;80.10;;;;;;4853796;29;20065;-65
2022/09/04 00:13:57;;;;;;;2.65;2.10;;;16.40;80.80;;;;;;4844161;29;20058;-66
2022/09/04 00:16:44;;;;;;;2.92;1.73;;;15.90;80.30;;;;;;4842169;29;20058;-66
2022/09/04 00:19:42;;;;;;;2.00;1.90;;;16.30;80.50;;;;;;4828108;29;20122;-66
2022/09/04 00:22:28;;;;;;;2.67;1.77;;;16.30;81.40;;;;;;4846347;29;20092;-66
2022/09/04 00:25:19;;;;;;;4.43;2.40;;;16.30;81.80;;;;;;4856263;29;20072;-67
2022/09/04 00:27:49;;;;;;;3.03;1.98;;;16.20;82.60;;;;;;4841619;29;20456;-66
2022/09/04 00:30:21;;;;;;;2.20;2.00;;;16.20;82.10;;;;;;4859949;29;20133;-66
2022/09/04 00:32:57;;;;;;;3.03;1.88;;;16.20;82.60;;;;;;4843417;29;20076;-66
2022/09/04 00:35:48;;;;;;;5.75;2.13;;;16.20;83.10;;;;;;4836021;29;20133;-67
2022/09/04 00:38:48;;;;;;;4.22;2.10;;;16.10;84.30;;;;;;4854950;29;20046;-67
2022/09/04 00:41:46;;;;;;;3.55;1.90;;;16.10;83.80;;;;;;4860236;29;20182;-67
2022/09/04 00:45:05;;;;;;;2.38;1.85;;;16.10;84.30;;;;;;4842272;29;20061;-67
2022/09/04 00:48:12;;;;;;;2.75;1.83;;;16.00;84.90;;;;;;4853506;29;20085;-68
2022/09/04 00:51:22;;;;;;;2.17;1.77;;;15.90;85.30;;;;;;4815689;29;20597;-67
2022/09/04 00:54:12;;;;;;;3.88;2.00;;;15.90;85.70;;;;;;4858147;29;20414;-67
2022/09/04 00:56:44;;;;;;;2.28;2.05;;;15.90;86.10;;;;;;4852722;29;20483;-67
2022/09/04 00:59:13;;;;;;;2.40;2.03;;;15.80;86.50;;;;;;4857617;29;20133;-67
2022/09/04 01:01:41;;;;;;;2.42;1.85;;;15.80;86.90;;;;;;4841853;29;20058;-68
2022/09/04 01:04:21;;;;;;;5.32;1.92;;;15.80;87.60;;;;;;4860463;29;20159;-67
2022/09/04 01:07:21;;;;;;;4.47;1.85;;;15.80;88.50;;;;;;4840129;29;21723;-67
2022/09/04 01:10:30;;;;;;;1.90;1.65;;;15.80;89.40;;;;;;4855147;29;20410;-67
2022/09/04 01:13:17;;;;;;;3.58;1.88;;;15.70;89.00;;;;;;4818125;29;20116;-66
2022/09/04 01:16:00;;;;;;;2.13;1.75;;;15.70;89.70;;;;;;4841683;29;20065;-67
2022/09/04 01:18:40;;;;;;;2.47;2.03;;;15.70;89.60;;;;;;4853425;29;20049;-66
2022/09/04 01:21:17;;;;;;;4.43;2.25;;;15.70;90.50;;;;;;4857532;29;20205;-67
2022/09/04 01:24:07;;;;;;;3.60;2.30;;;15.60;90.30;;;;;;4847373;29;20500;-67
2022/09/04 01:26:46;;;;;;;3.67;1.95;;;15.60;90.60;;;;;;4850574;29;20061;-67
2022/09/04 01:29:27;;;;;;;2.15;1.90;;;15.50;90.70;;;;;;4853147;29;20062;-67
2022/09/04 01:32:27;;;;;;;2.78;2.10;;;15.60;91.40;;;;;;4861113;29;20053;-67
2022/09/04 01:35:07;;;;;;;2.30;2.10;;;15.50;91.80;;;;;;4857433;29;20057;-66
2022/09/04 01:38:05;;;;;;;2.67;2.20;;;15.50;91.80;;;;;;4859581;29;20068;-66
2022/09/04 01:40:52;;;;;;;2.55;1.90;;;15.50;92.30;;;;;;4860800;29;20107;-68
2022/09/04 01:43:22;;;;;;;2.40;2.13;;;15.40;92.70;;;;;;4856723;29;20156;-67
2022/09/04 01:46:06;;;;;;;3.10;2.00;;;15.40;92.70;;;;;;4860836;29;20113;-67
2022/09/04 01:48:48;;;;;;;4.30;2.00;;;15.40;93.00;;;;;;4859676;29;20110;-68
2022/09/04 01:51:38;;;;;;;6.32;2.47;;;15.30;93.70;;;;;;4859416;29;20086;-66
2022/09/04 01:54:16;;;;;;;5.05;2.35;;;15.30;94.00;;;;;;4859613;29;20105;-67
2022/09/04 01:57:27;;;;;;;4.13;2.17;;;15.30;94.30;;;;;;4848596;29;20466;-66
2022/09/04 02:00:10;;;;;;;3.90;2.50;;;15.30;94.90;;;;;;4829653;29;20058;-67
2022/09/04 02:02:47;;;;;;;2.55;2.05;;;15.20;95.50;;;;;;4842479;29;20060;-67
2022/09/04 02:05:50;;;;;;;2.47;2.20;;;15.20;95.60;;;;;;4842709;29;20141;-67
2022/09/04 02:08:42;;;;;;;4.15;2.47;;;15.20;96.00;;;;;;4858410;29;20076;-67
2022/09/04 02:11:17;;;;;;;3.17;2.35;;;15.20;96.30;;;;;;4843668;29;20064;-67
2022/09/04 02:13:52;;;;;;;2.30;2.10;;;15.10;96.90;;;;;;4838950;29;20057;-67
2022/09/04 02:16:29;;;;;;;4.93;2.60;;;15.10;97.40;;;;;;4843145;29;21851;-67
2022/09/04 02:19:30;;;;;;;3.17;2.20;;;15.10;97.60;;;;;;4842539;29;20154;-68
2022/09/04 02:22:05;;;;;;;3.80;2.33;;;15.10;98.00;;;;;;4856060;29;20086;-67
2022/09/04 02:24:41;;;;;;;3.10;2.30;;;15.10;98.50;;;;;;4857347;29;20109;-68
2022/09/04 02:27:16;;;;;;;4.88;2.42;;;15.10;98.80;;;;;;4842181;29;20463;-66
2022/09/04 02:30:06;;;;;;;3.85;2.40;;;15.00;98.70;;;;;;4857126;29;20534;-67
2022/09/04 02:32:44;;;;;;;2.97;2.15;;;15.00;99.10;;;;;;4859973;29;20100;-66
2022/09/04 02:35:21;;;;;;;4.18;2.10;;;15.00;99.30;;;;;;4856582;29;20089;-67
2022/09/04 02:37:46;;;;;;;2.25;2.05;;;15.00;99.90;;;;;;4857913;29;20079;-68
2022/09/04 02:40:33;;;;;;;2.15;1.92;;;15.00;99.60;;;;;;4834934;29;20079;-67
2022/09/04 02:43:39;;;;;;;4.45;2.40;;;15.00;99.90;;;;;;4856269;29;20399;-66
2022/09/04 02:46:35;;;;;;;3.05;2.30;;;14.90;99.90;;;;;;4838299;29;20059;-65
2022/09/04 02:49:19;;;;;;;2.60;2.30;;;14.90;99.90;;;;;;4842490;29;20050;-67
2022/09/04 02:52:13;;;;;;;2.40;2.20;;;14.90;99.90;;;;;;4857241;29;20476;-66
2022/09/04 02:55:18;;;;;;;2.80;2.13;;;14.80;99.90;;;;;;4859919;29;20414;-67
2022/09/04 02:58:10;;;;;;;2.30;2.10;;;14.80;99.90;;;;;;4840599;29;20101;-66
2022/09/04 03:01:06;;;;;;;5.23;2.40;;;14.80;99.90;;;;;;4844754;29;20049;-66
2022/09/04 03:03:39;;;;;;;3.60;2.10;;;14.70;99.90;;;;;;4834049;29;20346;-66
2022/09/04 03:06:10;;;;;;;3.97;2.60;;;14.70;99.90;;;;;;4860285;29;20163;-66
2022/09/04 03:09:03;;;;;;;3.63;2.35;;;14.70;99.90;;;;;;4860514;29;20084;-66
2022/09/04 03:11:39;;;;;;;2.85;2.22;;;14.60;99.90;;;;;;4850810;29;20519;-66
2022/09/04 03:14:37;;;;;;;5.90;2.67;;;14.60;99.90;;;;;;4860999;29;20118;-66
2022/09/04 03:17:57;;;;;;;3.50;2.55;;;14.60;99.90;;;;;;4840407;29;20057;-66
2022/09/04 03:20:28;;;;;;;4.70;2.72;;;14.50;99.90;;;;;;4788117;29;20536;-66
2022/09/04 03:23:04;;;;;;;5.03;2.50;;;14.50;99.90;;;;;;4818700;29;20110;-66
2022/09/04 03:26:06;;;;;;;2.92;2.40;;;14.50;99.90;;;;;;4844370;29;20510;-66
2022/09/04 03:28:47;;;;;;;2.60;2.40;;;14.40;99.90;;;;;;4845014;29;20073;-66
2022/09/04 03:31:27;;;;;;;4.78;2.40;;;14.40;99.90;;;;;;4860197;29;20403;-66
2022/09/04 03:34:23;;;;;;;3.45;2.72;;;14.40;99.90;;;;;;4861804;29;20061;-67
2022/09/04 03:37:13;;;;;;;3.65;2.58;;;14.40;99.90;;;;;;4859414;29;20054;-67
2022/09/04 03:40:03;;;;;;;3.35;2.47;;;14.30;99.90;;;;;;4863665;29;20061;-65
2022/09/04 03:42:28;;;;;;;5.97;2.90;;;14.30;99.90;;;;;;4861165;29;20097;-66
2022/09/04 03:45:12;;;;;;;4.32;2.75;;;14.30;99.90;;;;;;4861860;29;20088;-66
2022/09/04 03:47:55;;;;;;;5.93;2.85;;;14.30;99.90;;;;;;4857055;29;20392;-66
2022/09/04 03:50:34;;;;;;;4.30;2.95;;;14.20;99.90;;;;;;4845956;29;20058;-66
2022/09/04 03:53:23;;;;;;;4.75;2.85;;;14.20;99.90;;;;;;4839467;29;20062;-66
2022/09/04 03:56:21;;;;;;;2.97;2.50;;;14.20;99.90;;;;;;4849399;29;20060;-66
2022/09/04 03:58:59;;;;;;;2.90;2.40;;;14.20;99.90;;;;;;4847043;29;20065;-65
2022/09/04 04:01:36;;;;;;;3.70;3.03;;;14.10;99.90;;;;;;4846382;29;20054;-66
2022/09/04 04:04:23;;;;;;;5.60;3.00;;;14.10;99.90;;;;;;4840620;29;20073;-65
2022/09/04 04:06:56;;;;;;;3.38;2.97;;;14.10;99.90;;;;;;4860846;29;20483;-67
2022/09/04 04:09:59;;;;;;;3.10;2.80;;;14.00;99.90;;;;;;4828437;29;20109;-67
2022/09/04 04:12:38;;;;;;;4.43;2.95;;;14.00;99.90;;;;;;4851710;29;21336;-66
2022/09/04 04:15:03;;;;;;;3.53;3.00;;;14.00;99.90;;;;;;4812498;29;20061;-66
2022/09/04 04:18:01;;;;;;;4.93;2.92;;;13.90;99.90;;;;;;4834776;29;20058;-65
2022/09/04 04:21:01;;;;;;;4.50;3.00;;;13.90;99.90;;;;;;4843350;29;20113;-66
2022/09/04 04:23:57;;;;;;;4.32;3.08;;;13.90;99.90;;;;;;4838220;29;20076;-66
2022/09/04 04:26:54;;;;;;;5.95;3.63;;;13.90;99.90;;;;;;4844217;29;20089;-66
2022/09/04 04:29:43;;;;;;;5.38;3.42;;;13.80;99.90;;;;;;4848288;29;20061;-66
2022/09/04 04:32:19;;;;;;;4.55;3.13;;;13.80;99.90;;;;;;4835906;29;20061;-66
2022/09/04 04:35:18;;;;;;;3.03;2.78;;;13.80;99.90;;;;;;4847309;29;20053;-67
2022/09/04 04:38:08;;;;;;;5.60;3.05;;;13.70;99.90;;;;;;4848954;29;20479;-67
2022/09/04 04:40:55;;;;;;;4.55;3.28;;;13.70;99.90;;;;;;4826786;29;20086;-66
2022/09/04 04:43:49;;;;;;;3.92;3.30;;;13.70;99.90;;;;;;4843014;29;20058;-66
2022/09/04 04:46:39;;;;;;;4.45;3.13;;;13.70;99.90;;;;;;4846298;29;20120;-66
2022/09/04 04:49:19;;;;;;;4.05;3.15;;;13.70;99.90;;;;;;4851799;29;20050;-66
2022/09/04 04:52:20;;;;;;;4.47;3.08;;;13.70;99.90;;;;;;4822342;29;20041;-66
2022/09/04 04:55:09;;;;;;;4.30;3.63;;;13.70;99.90;;;;;;4854705;29;20439;-66
2022/09/04 04:57:59;;;;;;;4.68;3.25;;;13.70;99.90;;;;;;4853195;29;20885;-65
2022/09/04 05:00:39;;;;;;;5.38;3.30;;;13.60;99.90;;;;;;4850084;29;20125;-66
2022/09/04 05:03:20;;;;;;;4.75;3.08;;;13.60;99.90;;;;;;4856482;29;20384;-67
2022/09/04 05:06:05;;;;;;;5.97;3.60;;;13.60;99.90;;;;;;4843188;29;20522;-67
2022/09/04 05:08:46;;;;;;;6.50;3.15;;;13.70;99.90;;;;;;4844342;29;21102;-67
2022/09/04 05:11:35;;;;;;;7.03;3.47;;;13.70;99.90;;;;;;4851512;29;20084;-67
2022/09/04 05:14:42;;;;;;;4.22;3.20;;;13.70;99.90;;;;;;4847704;29;20516;-66
2022/09/04 05:17:16;;;;;;;4.03;3.30;;;13.70;99.90;;;;;;4852402;29;20058;-66
2022/09/04 05:20:18;;;;;;;5.10;3.50;;;13.70;99.90;;;;;;4854482;29;20094;-66
2022/09/04 05:22:51;;;;;;;5.47;3.57;;;13.80;99.90;;;;;;4854454;29;20054;-65
2022/09/04 05:25:37;;;;;;;6.38;3.83;;;13.80;99.90;;;;;;4854579;29;20390;-67
2022/09/04 05:28:27;;;;;;;4.53;3.67;;;13.80;99.90;;;;;;4840108;29;20061;-65
2022/09/04 05:31:13;;;;;;;11.55;3.95;;;13.90;99.90;;;;;;4852718;29;20498;-66
2022/09/04 05:34:12;;;;;;;4.15;3.45;;;14.00;99.90;;;;;;4839957;29;20485;-66
2022/09/04 05:37:09;;;;;;;4.75;3.35;;;14.00;99.90;;;;;;4851848;29;20499;-65
2022/09/04 05:40:02;;;;;;;4.35;3.55;;;14.10;99.90;;;;;;4851997;29;20216;-67
2022/09/04 05:42:49;;;;;;;8.40;3.67;;;14.10;99.90;;;;;;4843756;29;20475;-66
2022/09/04 05:45:42;;;;;;;5.53;3.80;;;14.20;99.90;;;;;;4860262;29;20065;-67
2022/09/04 05:48:21;;;;;;;4.40;3.70;;;14.20;99.90;;;;;;4856506;29;20061;-66
2022/09/04 05:50:59;;;;;;;4.68;3.75;;;14.30;99.90;;;;;;4861938;29;20420;-67
2022/09/04 05:53:31;;;;;;;5.53;3.50;;;14.40;99.90;;;;;;4858614;29;20057;-66
2022/09/04 05:56:15;;;;;;;5.03;3.50;;;14.40;99.90;;;;;;4850295;29;20146;-66
2022/09/04 05:58:53;;;;;;;5.30;3.65;;;14.60;99.90;;;;;;4856859;29;20554;-66
2022/09/04 06:01:34;;;;;;;4.68;3.38;;;14.60;99.90;;;;;;4836385;29;20054;-66
2022/09/04 06:04:42;;;;;;;4.68;3.38;;;14.70;99.90;;;;;;4858420;29;20116;-67
2022/09/04 06:07:13;;;;;;;6.43;3.42;;;14.80;99.90;;;;;;4833784;29;20068;-67
2022/09/04 06:10:00;;;;;;;4.10;3.38;;;14.90;99.90;;;;;;4851699;29;20132;-67
2022/09/04 06:12:39;;;;;;;6.47;3.90;;;15.10;99.90;;;;;;4852926;29;20550;-67
2022/09/04 06:15:34;;;;;;;5.07;3.28;;;15.20;99.90;;;;;;4843965;29;20069;-67
2022/09/04 06:18:14;;;;;;;5.47;3.45;;;15.30;99.90;;;;;;4810202;29;20067;-67
2022/09/04 06:21:33;;;;;;;4.80;3.10;;;15.40;99.90;;;;;;4860771;29;20069;-65
2022/09/04 06:24:06;;;;;;;4.45;3.35;;;15.50;99.90;;;;;;4802898;29;20155;-67
2022/09/04 06:27:03;;;;;;;4.50;3.30;;;15.60;99.90;;;;;;4836096;29;20141;-66
2022/09/04 06:29:56;;;;;;;12.18;3.75;;;15.60;99.90;;;;;;4840973;29;20077;-67
2022/09/04 06:32:40;;;;;;;6.00;3.85;;;15.80;99.90;;;;;;4840955;29;20062;-68
2022/09/04 06:35:13;;;;;;;5.70;3.40;;;15.80;99.90;;;;;;4845926;29;20110;-66
2022/09/04 06:38:03;;;;;;;3.53;3.20;;;15.80;99.90;;;;;;4853401;29;20462;-66
2022/09/04 06:40:59;;;;;;;4.18;3.78;;;15.90;99.90;;;;;;4855401;29;20053;-67
2022/09/04 06:43:28;;;;;;;6.40;3.65;;;15.90;99.90;;;;;;4860724;29;20422;-67
2022/09/04 06:46:07;;;;;;;3.97;3.30;;;16.00;99.90;;;;;;4860530;29;20403;-66
2022/09/04 06:49:01;;;;;;;4.53;3.55;;;16.10;99.90;;;;;;4860317;29;20095;-67
2022/09/04 06:51:37;;;;;;;5.03;3.88;;;16.10;99.90;;;;;;4860077;29;20061;-66
2022/09/04 06:54:33;;;;;;;5.68;3.92;;;16.20;99.90;;;;;;4825636;29;20064;-67
2022/09/04 06:57:29;;;;;;;5.28;4.22;;;16.30;99.90;;;;;;4842150;29;20141;-66
2022/09/04 07:00:07;;;;;;;5.82;4.18;;;16.40;99.90;;;;;;4842295;29;20085;-66
2022/09/04 07:03:17;;;;;;;5.95;4.20;;;16.50;99.90;;;;;;4849666;29;20054;-66
2022/09/04 07:06:07;;;;;;;5.30;4.00;;;16.60;99.90;;;;;;4851039;29;20054;-67
2022/09/04 07:09:14;;;;;;;6.18;4.28;;;16.70;99.90;;;;;;4848343;29;20068;-67
2022/09/04 07:12:09;;;;;;;7.97;4.30;;;16.80;99.90;;;;;;4840668;29;20102;-67
2022/09/04 07:14:57;;;;;;;6.68;4.25;;;16.90;99.90;;;;;;4844243;29;20064;-65
2022/09/04 07:17:32;;;;;;;4.70;3.60;;;17.10;99.90;;;;;;4842487;29;20555;-67
2022/09/04 07:20:23;;;;;;;4.43;3.80;;;17.20;99.90;;;;;;4847058;29;20090;-67
2022/09/04 07:23:25;;;;;;;5.82;4.03;;;17.30;99.90;;;;;;4856238;29;20057;-66
2022/09/04 07:26:10;;;;;;;7.95;3.60;;;17.40;99.90;;;;;;4807706;29;20053;-66
2022/09/04 07:28:58;;;;;;;5.80;3.92;;;17.60;99.90;;;;;;4856302;29;20062;-66
2022/09/04 07:31:29;;;;;;;5.65;3.47;;;17.70;99.90;;;;;;4839407;29;20125;-66
2022/09/04 07:34:10;;;;;;;6.93;3.40;;;17.90;99.90;;;;;;4855841;29;20507;-68
2022/09/04 07:36:47;;;;;;;5.32;3.20;;;18.00;99.90;;;;;;4859491;29;20057;-67
2022/09/04 07:39:34;;;;;;;5.35;3.45;;;18.10;99.90;;;;;;4844339;29;20370;-66
2022/09/04 07:42:19;;;;;;;4.18;3.08;;;18.20;99.90;;;;;;4843206;29;20065;-67
2022/09/04 07:44:47;;;;;;;3.42;3.00;;;18.30;99.90;;;;;;4850118;29;20050;-68
2022/09/04 07:47:26;;;;;;;3.70;3.20;;;18.40;99.90;;;;;;4833067;29;20062;-65
2022/09/04 07:50:12;;;;;;;4.75;2.88;;;18.50;99.90;;;;;;4852848;29;20053;-65
2022/09/04 07:52:56;;;;;;;6.25;3.38;;;18.60;99.90;;;;;;4844073;29;20062;-66
2022/09/04 07:55:45;;;;;;;6.07;3.05;;;18.70;99.90;;;;;;4828295;29;20489;-65
2022/09/04 07:59:12;;;;;;;3.35;3.05;;;18.90;99.90;;;;;;4828372;29;20066;-66
2022/09/04 08:01:56;;;;;;;4.63;2.88;;;19.00;99.90;;;;;;4806006;29;20377;-66
2022/09/04 08:04:53;;;;;;;4.07;2.90;;;19.20;99.90;;;;;;4841581;29;20491;-66
2022/09/04 08:07:38;;;;;;;4.50;3.00;;;19.30;99.90;;;;;;4843981;29;20058;-65
2022/09/04 08:10:36;;;;;;;4.35;2.85;;;19.40;99.80;;;;;;4844401;29;20066;-66
2022/09/04 08:13:21;;;;;;;3.47;2.53;;;19.50;99.70;;;;;;4844385;29;20488;-67
2022/09/04 08:16:02;;;;;;;7.43;3.00;;;19.60;99.10;;;;;;4844327;29;20073;-67
2022/09/04 08:18:39;;;;;;;3.72;2.53;;;19.80;98.70;;;;;;4827955;29;20122;-67
2022/09/04 08:21:22;;;;;;;3.75;2.58;;;19.90;98.20;;;;;;4828184;29;20483;-67
2022/09/04 08:24:16;;;;;;;3.20;2.70;;;20.30;97.90;;;;;;4856597;29;20061;-66
2022/09/04 08:27:08;;;;;;;4.38;2.40;;;20.20;97.70;;;;;;4837256;29;20487;-66
2022/09/04 08:29:37;;;;;;;;;;;20.30;97.80;;;;;;4854989;29;20093;-67
2022/09/04 08:32:24;;;;;;;6.03;2.80;;;20.40;96.50;;;;;;4862471;29;20035;-66
2022/09/04 08:35:14;;;;;;;4.18;2.80;;;20.50;96.60;;;;;;4837128;29;20491;-65
2022/09/04 08:38:00;;;;;;;3.00;2.70;;;20.50;96.20;;;;;;4852351;29;20474;-66
2022/09/04 08:40:53;;;;;;;3.83;2.53;;;20.70;95.20;;;;;;4835735;29;20058;-66
2022/09/04 08:43:25;;;;;;;4.15;2.85;;;20.80;95.30;;;;;;4854547;29;20141;-66
2022/09/04 08:46:10;;;;;;;5.75;2.45;;;20.90;95.30;;;;;;4845766;29;20341;-65
2022/09/04 08:49:09;;;;;;;2.42;2.30;;;21.00;94.40;;;;;;4845760;29;20057;-66
2022/09/04 08:52:05;;;;;;;4.20;2.30;;;21.10;94.80;;;;;;4853158;29;20048;-66
2022/09/04 08:55:06;;;;;;;2.75;2.47;;;21.20;94.10;;;;;;4850688;29;20057;-66
2022/09/04 08:58:10;;;;;;;4.00;2.20;;;21.40;93.30;;;;;;4835231;29;20057;-66
2022/09/04 09:00:58;;;;;;;2.42;2.20;;;21.40;92.70;;;;;;4842891;29;20522;-65
2022/09/04 09:03:58;;;;;;;2.50;2.30;;;21.40;92.70;;;;;;4846916;29;20057;-66
2022/09/04 09:07:01;;;;;;;4.50;2.40;;;21.60;92.10;;;;;;4861739;29;20053;-67
2022/09/04 09:10:03;;;;;;;5.82;2.40;;;21.70;91.40;;;;;;4861986;29;20054;-66
2022/09/04 09:12:44;;;;;;;3.63;2.60;;;21.70;91.40;;;;;;4860902;29;20061;-66
2022/09/04 09:15:17;;;;;;;5.07;2.40;;;21.80;91.10;;;;;;4860784;29;20064;-66
2022/09/04 09:18:01;;;;;;;5.18;2.00;;;21.90;91.40;;;;;;4860373;29;20616;-65
2022/09/04 09:20:51;;;;;;;4.55;2.63;;;22.10;91.00;;;;;;4843635;29;20115;-66
2022/09/04 09:23:17;;;;;;;4.85;2.55;;;22.30;91.80;;;;;;4826514;29;20066;-67
2022/09/04 09:26:08;;;;;;;2.78;2.40;;;22.30;91.00;;;;;;4827116;29;20065;-66
2022/09/04 09:28:58;;;;;;;2.95;2.08;;;22.50;90.20;;;;;;4826982;29;20110;-66
2022/09/04 09:31:42;;;;;;;3.83;2.38;;;22.50;88.00;;;;;;4818797;29;20057;-66
2022/09/04 09:34:50;;;;;;;4.03;2.00;;;22.60;87.70;;;;;;4855665;29;20049;-66
2022/09/04 09:37:40;;;;;;;4.97;2.10;;;22.70;87.00;;;;;;4857758;29;20491;-66
2022/09/04 09:40:45;;;;;;;2.60;2.40;;;22.90;88.20;;;;;;4848366;29;20054;-66
2022/09/04 09:43:41;;;;;;;2.92;2.08;;;23.10;85.10;;;;;;4854124;29;20060;-67
2022/09/04 09:46:30;;;;;;;2.95;2.20;;;23.20;85.20;;;;;;4852530;29;20056;-66
2022/09/04 09:49:10;;;;;;;2.95;1.80;;;23.30;82.20;;;;;;4870780;29;20065;-66
2022/09/04 09:51:53;;;;;;;3.40;2.20;;;23.40;79.80;;;;;;4853692;29;20055;-66
2022/09/04 09:54:54;;;;;;;2.97;2.10;;;23.50;81.80;;;;;;4854923;29;20061;-66
2022/09/04 09:57:41;;;;;;;3.33;1.98;;;23.60;80.30;;;;;;4844731;29;20464;-65
2022/09/04 10:00:17;;;;;;;3.58;2.10;;;23.60;79.40;;;;;;4861237;29;20061;-65
2022/09/04 10:03:23;;;;;;;3.67;2.08;;;23.70;78.90;;;;;;4864599;29;20053;-65
2022/09/04 10:06:09;;;;;;;3.10;1.80;;;23.80;76.70;;;;;;4870029;29;20132;-65
2022/09/04 10:09:03;;;;;;;1.90;1.80;;;23.90;76.40;;;;;;4870289;29;20103;-66
2022/09/04 10:11:46;;;;;;;2.45;2.22;;;23.90;75.60;;;;;;4869660;29;20490;-65
2022/09/04 10:14:36;;;;;;;2.30;2.10;;;23.90;75.10;;;;;;4865100;29;20104;-66
2022/09/04 10:17:05;;;;;;;2.20;2.10;;;24.00;75.70;;;;;;4860940;29;20141;-67
2022/09/04 10:19:54;;;;;;;4.90;1.83;;;24.20;76.30;;;;;;4859408;29;20064;-65
2022/09/04 10:22:57;;;;;;;3.35;2.13;;;24.30;75.90;;;;;;4865060;29;20052;-65
2022/09/04 10:25:25;;;;;;;3.58;1.80;;;24.40;73.50;;;;;;4852555;29;20061;-65
2022/09/04 10:28:25;;;;;;;3.42;2.38;;;24.50;75.00;;;;;;4853315;29;20133;-67
2022/09/04 10:31:25;;;;;;;3.30;2.00;;;24.50;72.40;;;;;;4851811;29;20116;-67
2022/09/04 10:34:11;;;;;;;2.35;1.98;;;24.50;71.60;;;;;;4870469;29;20196;-65
2022/09/04 10:37:07;;;;;;;2.80;2.35;;;24.60;72.10;;;;;;4871660;29;20049;-65
2022/09/04 10:43:12;;;;;;;6.70;1.75;;;24.60;72.20;;;;;;4869495;29;20128;-66
2022/09/04 10:46:05;;;;;;;3.67;2.10;;;24.70;72.70;;;;;;4868892;29;20455;-66
2022/09/04 10:48:50;;;;;;;3.05;2.08;;;24.80;71.90;;;;;;4856004;29;20049;-65
2022/09/04 10:51:53;;;;;;;2.42;2.22;;;24.80;71.70;;;;;;4875445;29;20053;-68
2022/09/04 10:54:43;;;;;;;3.13;1.95;;;24.80;71.90;;;;;;4878028;29;20102;-67
2022/09/04 10:57:40;;;;;;;2.65;1.73;;;24.70;71.80;;;;;;4861351;29;20060;-66
2022/09/04 11:00:30;;;;;;;2.20;1.92;;;24.70;71.70;;;;;;4852775;29;20057;-66
2022/09/04 11:03:15;;;;;;;2.00;1.80;;;24.90;72.00;;;;;;4869809;29;20064;-65
2022/09/04 11:06:17;;;;;;;3.17;1.80;;;25.10;73.80;;;;;;4869867;29;20061;-66
2022/09/04 11:09:04;;;;;;;3.42;2.10;;;25.30;72.40;;;;;;4852751;29;20054;-65
2022/09/04 11:11:51;;;;;;;2.95;2.13;;;25.30;71.60;;;;;;4866327;29;20072;-65
2022/09/04 11:14:50;;;;;;;4.05;2.10;;;25.40;70.40;;;;;;4875106;29;20158;-66
2022/09/04 11:17:29;;;;;;;2.10;1.90;;;25.50;69.90;;;;;;4860757;29;20413;-66
2022/09/04 11:20:16;;;;;;;2.80;1.88;;;25.60;70.40;;;;;;4873886;29;20057;-66
2022/09/04 11:23:17;;;;;;;5.72;2.10;;;25.70;71.00;;;;;;4876330;29;21426;-66
2022/09/04 11:26:07;;;;;;;1.70;1.48;;;25.60;71.40;;;;;;4878935;29;20053;-67
2022/09/04 11:28:50;;;;;;;2.45;1.67;;;25.70;71.30;;;;;;4876721;29;20057;-67
2022/09/04 11:32:01;;;;;;;1.73;1.58;;;25.70;72.80;;;;;;4881040;29;20085;-66
2022/09/04 11:34:56;;;;;;;3.22;1.60;;;25.90;71.70;;;;;;4881096;29;20053;-67
2022/09/04 11:37:40;;;;;;;2.50;1.95;;;25.80;70.70;;;;;;4880299;29;20429;-66
2022/09/04 11:40:25;;;;;;;2.60;1.77;;;25.80;72.40;;;;;;4863815;29;20136;-66
2022/09/04 11:43:35;;;;;;;4.38;1.80;;;26.10;71.70;;;;;;4863816;29;20061;-66
2022/09/04 11:46:26;;;;;;;5.47;2.05;;;26.10;71.60;;;;;;4847139;29;20109;-66
2022/09/04 11:48:57;;;;;;;2.05;1.83;;;26.10;71.20;;;;;;4879447;29;20050;-65
2022/09/04 11:52:04;;;;;;;3.20;1.73;;;26.20;70.70;;;;;;4880342;29;20049;-66
2022/09/04 11:54:58;;;;;;;2.65;1.80;;;26.30;71.20;;;;;;4879195;29;20132;-66
2022/09/04 11:57:39;;;;;;;2.65;1.77;;;26.30;70.10;;;;;;4874093;29;20612;-65
2022/09/04 12:00:07;;;;;;;2.42;1.77;;;26.40;71.60;;;;;;4878690;29;20063;-65
2022/09/04 12:03:09;;;;;;;2.13;1.80;;;26.40;69.90;;;;;;4880532;29;20409;-65
2022/09/04 12:05:56;;;;;;;4.68;2.30;;;26.30;69.70;;;;;;4878230;29;20064;-65
2022/09/04 12:09:07;;;;;;;3.13;2.30;;;26.30;69.80;;;;;;4880704;29;20113;-66
2022/09/04 12:11:41;;;;;;;2.83;1.88;;;26.40;70.00;;;;;;4881303;29;20495;-67
2022/09/04 12:14:29;;;;;;;1.98;1.63;;;26.40;70.10;;;;;;4864908;29;20422;-67
2022/09/04 12:17:32;;;;;;;1.98;1.80;;;26.40;68.90;;;;;;4882029;29;20061;-67
2022/09/04 12:20:30;;;;;;;3.72;2.00;;;26.40;69.00;;;;;;4864637;29;20112;-67
2022/09/04 12:23:49;;;;;;;2.42;1.83;;;26.50;67.90;;;;;;4857513;29;20360;-66
2022/09/04 12:26:21;;;;;;;2.15;1.95;;;26.50;68.20;;;;;;4772907;30;20059;-67
2022/09/04 12:28:52;;;;;;;3.35;2.00;;;26.70;67.40;;;;;;4818286;29;20144;-66
2022/09/04 12:31:29;;;;;;;;;;;26.70;68.40;;;;;;4862988;29;20100;-67
2022/09/04 12:34:42;;;;;;;2.08;1.98;;;26.60;66.90;;;;;;4862510;29;20370;-66
2022/09/04 12:37:20;;;;;;;2.60;1.90;;;26.50;67.10;;;;;;4876843;29;20089;-66
2022/09/04 12:40:08;;;;;;;2.92;1.90;;;26.50;67.90;;;;;;4831009;29;20281;-68
2022/09/04 12:42:47;;;;;;;3.53;1.98;;;26.50;67.90;;;;;;4862436;29;20045;-66
2022/09/04 12:45:29;;;;;;;2.13;1.80;;;26.50;67.70;;;;;;4846503;29;20070;-66
2022/09/04 12:48:20;;;;;;;2.10;1.90;;;26.50;66.50;;;;;;4845305;29;20073;-67
2022/09/04 12:51:16;;;;;;;1.88;1.77;;;26.60;67.00;;;;;;4875951;29;20056;-67
2022/09/04 12:53:52;;;;;;;3.03;1.90;;;26.60;66.20;;;;;;4862379;29;20180;-67
2022/09/04 12:56:25;;;;;;;2.28;2.05;;;26.70;66.80;;;;;;4845418;29;20063;-66
2022/09/04 12:59:26;;;;;;;2.00;1.80;;;26.70;66.00;;;;;;4830250;29;20062;-66
2022/09/04 13:02:13;;;;;;;2.40;1.90;;;26.70;65.00;;;;;;4862297;29;20132;-66
2022/09/04 13:05:10;;;;;;;2.08;1.70;;;26.70;65.00;;;;;;4845343;29;20057;-66
2022/09/04 13:07:58;;;;;;;1.83;1.70;;;26.80;66.50;;;;;;4844882;29;20056;-66
2022/09/04 13:10:48;;;;;;;3.20;1.80;;;26.80;65.40;;;;;;4863345;29;20069;-67
2022/09/04 13:13:41;;;;;;;1.95;1.80;;;26.90;65.50;;;;;;4861860;29;20045;-66
2022/09/04 13:16:19;;;;;;;2.78;1.98;;;26.90;65.80;;;;;;4845630;29;20451;-67
2022/09/04 13:18:59;;;;;;;3.97;2.10;;;26.90;65.20;;;;;;4861940;29;20053;-67
2022/09/04 13:22:09;;;;;;;2.43;1.97;;;27.00;63.50;;;;;;4861244;29;20137;-66
2022/09/04 13:24:49;;;;;;;2.30;1.90;;;26.90;64.80;;;;;;4857855;29;20513;-66
2022/09/04 13:27:56;;;;;;;2.33;2.10;;;27.00;65.10;;;;;;4861928;29;20080;-66
2022/09/04 13:30:24;;;;;;;2.83;2.08;;;26.90;64.50;;;;;;4844987;29;20092;-66
2022/09/04 13:33:15;;;;;;;1.80;1.70;;;27.00;65.00;;;;;;4861601;29;20050;-66
2022/09/04 13:36:09;;;;;;;2.92;2.33;;;26.90;64.30;;;;;;4861489;29;20356;-65
2022/09/04 13:39:00;;;;;;;3.78;2.38;;;26.90;64.90;;;;;;4859951;29;20057;-66
2022/09/04 13:41:52;;;;;;;2.50;1.87;;;27.00;64.00;;;;;;4869039;29;20140;-66
2022/09/04 13:44:50;;;;;;;3.05;2.22;;;26.80;64.50;;;;;;4877714;29;20056;-66
2022/09/04 13:47:21;;;;;;;2.22;2.03;;;26.80;64.80;;;;;;4879075;29;20095;-66
2022/09/04 13:49:49;;;;;;;3.00;2.25;;;26.90;65.00;;;;;;4879794;29;20097;-66
2022/09/04 13:52:49;;;;;;;2.42;2.17;;;26.90;64.20;;;;;;4879433;29;20208;-66
2022/09/04 13:55:18;;;;;;;3.25;1.98;;;27.00;64.30;;;;;;4879863;29;20049;-65
2022/09/04 13:58:21;;;;;;;2.20;2.00;;;27.00;65.00;;;;;;4863483;29;20042;-65
2022/09/04 14:00:55;;;;;;;2.42;2.22;;;27.00;65.90;;;;;;4804163;29;20057;-66
2022/09/04 14:03:44;;;;;;;2.10;1.90;;;27.10;65.20;;;;;;4853270;29;20061;-66
2022/09/04 14:06:13;;;;;;;2.35;2.15;;;27.10;64.90;;;;;;4860716;29;20105;-66
2022/09/04 14:08:42;;;;;;;2.22;2.03;;;27.20;64.50;;;;;;4861407;29;20106;-66
2022/09/04 14:11:36;;;;;;;2.50;2.30;;;27.20;65.40;;;;;;4875934;29;20401;-66
2022/09/04 14:14:19;;;;;;;2.30;2.10;;;27.20;65.30;;;;;;4844474;29;20144;-66
2022/09/04 14:16:46;;;;;;;3.17;2.10;;;27.10;65.20;;;;;;4860740;29;20133;-66
2022/09/04 14:19:31;;;;;;;2.45;2.10;;;27.10;64.80;;;;;;4860981;29;20045;-66
2022/09/04 14:22:01;;;;;;;2.45;2.28;;;27.10;64.10;;;;;;4843928;29;20100;-66
2022/09/04 14:24:55;;;;;;;2.50;2.00;;;27.20;64.20;;;;;;4860952;29;20056;-66
2022/09/04 14:27:31;;;;;;;2.70;2.00;;;27.30;63.20;;;;;;4870200;29;20060;-66
2022/09/04 14:30:02;;;;;;;3.25;2.20;;;27.30;63.30;;;;;;4863866;29;20049;-66
2022/09/04 14:32:56;;;;;;;3.17;2.33;;;27.20;63.20;;;;;;4878848;29;20068;-66
2022/09/04 14:35:49;;;;;;;4.57;2.10;;;27.20;63.40;;;;;;4862765;29;20178;-66